Time;durP1;ratioP1;P1;durP2;ratioP2;P2;SDS_P1;SDS_P2;PMS_P1;PMS_P2;Temp;Humidity;BMP_temperature;BMP_pressure;BME280_temperature;BME280_humidity;BME280_pressure;Samples;Min_cycle;Max_cycle;Signal;HPM_P1;HPM_P2
2022/08/22 00:00:14;;;;;;;11.68;4.25;;;;;;;17.61;87.96;68726.03;4938016;28;20078;-76
2022/08/22 00:02:58;;;;;;;10.52;4.20;;;;;;;;;;4931741;29;20191;-77
2022/08/22 00:05:29;;;;;;;7.75;3.70;;;;;;;;;;4907328;29;20056;-76
2022/08/22 00:08:22;;;;;;;9.90;4.07;;;;;;;17.48;88.84;68711.75;4943090;29;20553;-77
2022/08/22 00:10:56;;;;;;;13.43;4.40;;;;;;;;;;4925578;29;20071;-77
2022/08/22 00:13:32;;;;;;;8.85;4.50;;;;;;;;;;4943603;29;20035;-77
2022/08/22 00:16:19;;;;;;;9.30;4.30;;;;;;;;;;4946135;29;20051;-77
2022/08/22 00:18:56;;;;;;;10.77;4.70;;;;;;;17.47;89.35;68715.44;4932133;29;20050;-77
2022/08/22 00:21:40;;;;;;;9.38;4.57;;;;;;;;;;4928584;28;20391;-77
2022/08/22 00:24:05;;;;;;;9.13;5.07;;;;;;;17.37;90.24;68699.22;4941637;29;20138;-77
2022/08/22 00:27:00;;;;;;;11.00;5.38;;;;;;;17.32;90.43;68694.09;4934752;29;20575;-77
2022/08/22 00:29:31;;;;;;;8.30;5.30;;;;;;;;;;4911950;29;20551;-77
2022/08/22 00:32:07;;;;;;;9.32;4.47;;;;;;;17.25;91.40;68691.47;4916866;29;20055;-77
2022/08/22 00:34:38;;;;;;;10.40;4.88;;;;;;;17.25;91.56;68686.09;4949262;29;20066;-77
2022/08/22 00:37:35;;;;;;;11.68;4.93;;;;;;;17.24;91.59;68684.97;4940014;29;20071;-77
2022/08/22 00:40:06;;;;;;;10.32;4.50;;;;;;;;;;4938833;28;20051;-77
2022/08/22 00:42:50;;;;;;;6.80;4.22;;;;;;;17.17;91.88;68676.97;4926817;29;20095;-77
2022/08/22 00:45:37;;;;;;;10.07;4.63;;;;;;;17.12;92.45;68671.28;4930523;28;20047;-77
2022/08/22 00:48:20;;;;;;;11.45;5.03;;;;;;;;;;4948604;28;20055;-77
2022/08/22 00:51:17;;;;;;;11.00;4.63;;;;;;;;;;4947756;28;20423;-77
2022/08/22 00:53:51;;;;;;;8.10;5.05;;;;;;;17.07;92.53;68671.50;4909052;29;20479;-77
2022/08/22 00:56:22;;;;;;;12.52;5.18;;;;;;;17.03;92.92;68661.56;4948890;28;20067;-77
2022/08/22 00:59:21;;;;;;;11.35;4.85;;;;;;;16.99;92.75;68662.38;4946378;28;20130;-77
2022/08/22 01:02:12;;;;;;;12.70;5.40;;;;;;;16.96;93.31;68653.03;4928490;29;20054;-78
2022/08/22 01:05:02;;;;;;;10.15;4.90;;;;;;;16.95;93.00;68651.88;4939865;28;20287;-77
2022/08/22 01:07:54;;;;;;;10.98;4.63;;;;;;;16.91;93.52;68648.44;4942917;29;20054;-77
2022/08/22 01:10:34;;;;;;;11.02;5.20;;;;;;;16.85;94.01;68649.09;4914479;28;20059;-77
2022/08/22 01:13:11;;;;;;;14.55;5.38;;;;;;;;;;4928364;29;20078;-77
2022/08/22 01:15:41;;;;;;;10.32;5.53;;;;;;;16.81;94.05;68637.06;4929230;29;20051;-76
2022/08/22 01:18:29;;;;;;;8.77;4.82;;;;;;;;;;4929745;29;20516;-76
2022/08/22 01:21:12;;;;;;;10.93;5.40;;;;;;;16.78;94.08;68633.63;4920632;28;20458;-76
2022/08/22 01:23:46;;;;;;;11.77;4.93;;;;;;;16.74;94.26;68634.41;4948816;28;20054;-77
2022/08/22 01:26:36;;;;;;;13.13;5.40;;;;;;;16.75;94.34;68635.56;4942716;28;20050;-77
2022/08/22 01:29:07;;;;;;;15.65;5.95;;;;;;;16.71;94.55;68631.00;4942640;28;20043;-77
2022/08/22 01:31:51;;;;;;;15.77;5.97;;;;;;;;;;4946092;28;20130;-77
2022/08/22 01:34:35;;;;;;;11.80;6.28;;;;;;;;;;4940618;29;20053;-77
2022/08/22 01:37:07;;;;;;;12.25;6.05;;;;;;;;;;4943509;29;20031;-77
2022/08/22 01:39:35;;;;;;;10.32;5.68;;;;;;;16.69;95.09;68628.72;4909820;29;20440;-77
2022/08/22 01:42:38;;;;;;;8.97;5.70;;;;;;;16.69;94.95;68623.34;4930513;29;20039;-77
2022/08/22 01:45:33;;;;;;;12.00;5.70;;;;;;;16.66;94.86;68625.88;4945462;29;20044;-76
2022/08/22 01:48:10;;;;;;;9.77;5.40;;;;;;;16.59;95.72;68617.31;4942347;29;20051;-75
2022/08/22 01:50:38;;;;;;;9.52;5.30;;;;;;;;;;4948952;28;20054;-75
2022/08/22 01:53:06;;;;;;;10.93;5.43;;;;;;;;;;4943653;29;20040;-76
2022/08/22 01:56:01;;;;;;;10.38;5.68;;;;;;;16.52;95.74;68604.53;4940459;29;20097;-76
2022/08/22 01:58:30;;;;;;;13.18;5.38;;;;;;;16.49;95.10;68606.50;4902057;29;20130;-76
2022/08/22 02:01:17;;;;;;;13.00;5.70;;;;;;;16.46;94.99;68598.25;4944812;28;20093;-76
2022/08/22 02:03:42;;;;;;;12.32;5.80;;;;;;;;;;4931037;28;20519;-76
2022/08/22 02:06:14;;;;;;;11.33;6.07;;;;;;;16.39;95.77;68589.72;4928206;29;20043;-76
2022/08/22 02:08:43;;;;;;;10.48;5.90;;;;;;;;;;4931283;29;20852;-77
2022/08/22 02:11:30;;;;;;;12.50;6.10;;;;;;;16.24;97.16;68578.56;4944394;28;20063;-76
2022/08/22 02:14:31;;;;;;;12.80;6.30;;;;;;;16.18;97.39;68571.72;4941705;28;20499;-75
2022/08/22 02:17:09;;;;;;;12.43;6.68;;;;;;;;;;4933528;28;20051;-76
2022/08/22 02:19:53;;;;;;;12.82;7.10;;;;;;;16.09;98.49;68556.66;4942805;28;20170;-76
2022/08/22 02:22:30;;;;;;;12.10;6.88;;;;;;;16.02;98.49;68554.63;4927946;28;20047;-76
2022/08/22 02:25:01;;;;;;;14.38;6.55;;;;;;;;;;4936843;28;20070;-76
2022/08/22 02:27:47;;;;;;;11.00;6.32;;;;;;;16.08;98.24;68560.88;4932032;29;20126;-76
2022/08/22 02:30:21;;;;;;;15.13;7.00;;;;;;;;;;4925565;28;20131;-76
2022/08/22 02:33:09;;;;;;;12.77;6.60;;;;;;;16.02;98.37;68554.03;4929782;29;20094;-76
2022/08/22 02:35:53;;;;;;;10.98;6.43;;;;;;;15.98;97.79;68544.69;4943641;28;20067;-76
2022/08/22 02:38:39;;;;;;;9.13;6.15;;;;;;;16.00;97.78;68554.47;4950847;28;20066;-76
2022/08/22 02:41:23;;;;;;;12.77;6.80;;;;;;;15.96;98.47;68549.88;4931500;28;20095;-76
2022/08/22 02:44:16;;;;;;;13.57;6.50;;;;;;;15.87;98.90;68537.50;4932765;29;20044;-76
2022/08/22 02:46:54;;;;;;;11.63;6.30;;;;;;;;;;4951288;28;20047;-76
2022/08/22 02:49:42;;;;;;;10.85;6.63;;;;;;;15.81;99.17;68525.31;4934665;28;20514;-76
2022/08/22 02:52:07;;;;;;;11.15;6.07;;;;;;;;;;4946870;28;20578;-75
2022/08/22 02:54:51;;;;;;;11.10;6.87;;;;;;;15.79;99.35;68528.97;4938142;28;20142;-74
2022/08/22 02:57:28;;;;;;;10.43;7.18;;;;;;;15.73;99.05;68522.13;4944966;28;20398;-76
2022/08/22 03:00:17;;;;;;;13.43;7.00;;;;;;;15.77;99.60;68526.13;4949020;28;20047;-76
2022/08/22 03:02:43;;;;;;;13.95;6.80;;;;;;;;;;4958956;28;20399;-76
2022/08/22 03:05:35;;;;;;;15.73;7.50;;;;;;;15.74;99.39;68523.28;4948536;28;20413;-76
2022/08/22 03:08:03;;;;;;;14.55;8.18;;;;;;;15.74;99.74;68522.72;4939069;28;20074;-76
2022/08/22 03:10:37;;;;;;;12.90;7.65;;;;;;;15.78;99.29;68522.47;4935282;29;20514;-76
2022/08/22 03:13:35;;;;;;;15.70;7.18;;;;;;;15.77;99.26;68520.75;4940585;28;20035;-76
2022/08/22 03:16:17;;;;;;;11.50;7.90;;;;;;;15.74;99.27;68523.28;4950961;28;20062;-76
2022/08/22 03:19:01;;;;;;;12.32;7.70;;;;;;;15.71;99.96;68519.28;4942283;28;20031;-76
2022/08/22 03:21:40;;;;;;;11.40;7.57;;;;;;;;;;4921275;29;20098;-76
2022/08/22 03:24:08;;;;;;;15.68;8.40;;;;;;;15.73;99.46;68516.75;4943841;28;20069;-76
2022/08/22 03:26:35;;;;;;;17.58;8.75;;;;;;;;;;4935894;28;20054;-75
2022/08/22 03:29:05;;;;;;;12.90;8.27;;;;;;;;;;4936679;28;20507;-75
2022/08/22 03:31:31;;;;;;;14.00;7.75;;;;;;;;;;4949933;28;20054;-75
2022/08/22 03:34:17;;;;;;;15.43;8.43;;;;;;;;;;4939309;28;20415;-75
2022/08/22 03:36:55;;;;;;;13.30;8.00;;;;;;;15.67;100.00;68506.66;4937440;28;20477;-76
2022/08/22 03:39:33;;;;;;;14.90;8.95;;;;;;;;;;4940822;28;20553;-76
2022/08/22 03:42:21;;;;;;;15.55;8.43;;;;;;;15.69;100.00;68512.22;4944786;28;20107;-76
2022/08/22 03:44:49;;;;;;;15.52;8.68;;;;;;;;;;4933938;28;20564;-75
2022/08/22 03:47:45;;;;;;;11.93;8.20;;;;;;;15.71;100.00;68522.53;4929162;29;20056;-76
2022/08/22 03:50:44;;;;;;;14.38;9.13;;;;;;;15.74;100.00;68517.34;4946854;28;20089;-76
2022/08/22 03:53:21;;;;;;;16.90;8.45;;;;;;;15.75;100.00;68524.41;4945627;28;20047;-76
2022/08/22 03:55:47;;;;;;;17.15;8.48;;;;;;;;;;4942655;28;20118;-77
2022/08/22 03:58:47;;;;;;;16.33;9.07;;;;;;;;;;4932750;28;20134;-75
2022/08/22 04:01:32;;;;;;;14.95;9.50;;;;;;;;;;4893941;29;20927;-75
2022/08/22 04:04:09;;;;;;;13.52;8.77;;;;;;;15.66;100.00;68508.78;4927931;28;20055;-75
2022/08/22 04:06:54;;;;;;;16.05;10.07;;;;;;;;;;4928770;29;20130;-76
2022/08/22 04:09:25;;;;;;;14.25;8.48;;;;;;;15.64;100.00;68505.91;4927245;29;20051;-76
2022/08/22 04:12:02;;;;;;;17.52;9.85;;;;;;;15.65;100.00;68507.06;4936556;28;20063;-76
2022/08/22 04:15:06;;;;;;;15.52;9.90;;;;;;;15.62;100.00;68509.00;4928421;29;20056;-76
2022/08/22 04:17:40;;;;;;;14.98;9.98;;;;;;;15.64;100.00;68513.97;4925515;29;20048;-76
2022/08/22 04:20:08;;;;;;;14.43;10.07;;;;;;;15.61;100.00;68508.44;4948378;23;20047;-78
2022/08/22 04:23:00;;;;;;;17.15;9.75;;;;;;;15.62;100.00;68509.00;4929871;28;20059;-79
2022/08/22 04:25:39;;;;;;;16.63;10.68;;;;;;;15.56;100.00;68505.41;4934453;28;20078;-78
2022/08/22 04:28:15;;;;;;;16.40;9.88;;;;;;;15.56;100.00;68503.31;4943492;28;20048;-78
2022/08/22 04:31:28;;;;;;;18.95;10.25;;;;;;;15.56;100.00;68503.31;4930275;28;20044;-78
2022/08/22 04:33:53;;;;;;;13.65;9.32;;;;;;;;;;4914006;29;20063;-78
2022/08/22 04:36:25;;;;;;;17.17;10.37;;;;;;;15.50;100.00;68496.47;4928195;28;20082;-79
2022/08/22 04:39:11;;;;;;;17.70;10.40;;;;;;;;;;4934899;28;20299;-77
2022/08/22 04:41:52;;;;;;;18.85;9.63;;;;;;;15.52;100.00;68498.19;4919318;29;20059;-77
2022/08/22 04:44:22;;;;;;;15.68;8.95;;;;;;;;;;4941115;28;20039;-78
2022/08/22 04:46:51;;;;;;;17.15;10.95;;;;;;;;;;4942496;28;20043;-78
2022/08/22 04:49:23;;;;;;;21.38;10.77;;;;;;;15.55;100.00;68502.16;4948141;28;20047;-77
2022/08/22 04:52:37;;;;;;;16.15;10.68;;;;;;;15.63;100.00;68510.16;4938110;28;20050;-77
2022/08/22 04:55:21;;;;;;;14.73;10.50;;;;;;;15.66;100.00;68508.78;4914516;28;20047;-78
2022/08/22 04:58:01;;;;;;;24.13;11.02;;;;;;;15.64;100.00;68511.84;4935424;29;20047;-78
2022/08/22 05:00:54;;;;;;;17.85;10.43;;;;;;;15.64;100.00;68511.84;4924623;29;20909;-77
2022/08/22 05:03:23;;;;;;;16.27;10.82;;;;;;;15.63;100.00;68510.16;4929814;28;20046;-79
2022/08/22 05:05:51;;;;;;;15.52;9.80;;;;;;;15.70;100.00;68512.78;4932401;28;20047;-77
2022/08/22 05:08:20;;;;;;;17.33;9.63;;;;;;;;;;4946091;28;20059;-77
2022/08/22 05:10:46;;;;;;;;;;;;;;;;;;4929657;29;20039;-77
2022/08/22 05:13:27;;;;;;;21.90;11.50;;;;;;;;;;4927778;29;19922;-78
2022/08/22 05:15:58;;;;;;;15.38;10.30;;;;;;;15.81;100.00;68533.38;4942699;28;20394;-78
2022/08/22 05:18:28;;;;;;;16.65;10.25;;;;;;;;;;4946765;28;20093;-78
2022/08/22 05:20:56;;;;;;;15.02;10.10;;;;;;;15.93;100.00;68544.34;4939668;28;20043;-78
2022/08/22 05:23:28;;;;;;;15.85;9.30;;;;;;;16.04;100.00;68555.75;4928768;29;20042;-78
2022/08/22 05:26:05;;;;;;;14.60;9.57;;;;;;;16.08;100.00;68560.88;4937327;28;20054;-78
2022/08/22 05:28:40;;;;;;;15.35;8.60;;;;;;;16.10;100.00;68563.16;4948357;28;20050;-79
2022/08/22 05:31:09;;;;;;;16.33;9.75;;;;;;;16.14;100.00;68562.38;4940022;28;20043;-78
2022/08/22 05:33:37;;;;;;;15.30;9.43;;;;;;;;;;4943924;29;20050;-78
2022/08/22 05:36:22;;;;;;;20.63;9.55;;;;;;;;;;4945168;28;20047;-78
2022/08/22 05:38:53;;;;;;;17.98;9.88;;;;;;;16.29;100.00;68578.88;4942939;28;20047;-78
2022/08/22 05:41:23;;;;;;;15.68;8.57;;;;;;;16.30;100.00;68585.38;4944437;28;20652;-78
2022/08/22 05:43:49;;;;;;;17.45;9.35;;;;;;;;;;4948362;28;20039;-78
2022/08/22 05:46:30;;;;;;;14.07;9.98;;;;;;;16.42;100.00;68593.69;4941181;28;20044;-78
2022/08/22 05:48:59;;;;;;;17.15;9.32;;;;;;;16.44;100.00;68601.34;4941052;28;20050;-78
2022/08/22 05:51:28;;;;;;;16.67;9.65;;;;;;;;;;4935427;28;20472;-78
2022/08/22 05:54:02;;;;;;;16.13;9.43;;;;;;;;;;4935354;28;20036;-78
2022/08/22 05:56:33;;;;;;;14.68;9.00;;;;;;;;;;4928746;29;20047;-78
2022/08/22 05:59:08;;;;;;;16.58;9.15;;;;;;;16.62;99.44;68621.31;4945839;28;20073;-78
2022/08/22 06:01:33;;;;;;;16.25;9.40;;;;;;;;;;4949242;28;20138;-78
2022/08/22 06:04:03;;;;;;;14.85;9.20;;;;;;;;;;4933202;29;20575;-78
2022/08/22 06:06:33;;;;;;;14.80;9.60;;;;;;;16.71;98.99;68625.63;4945807;28;20610;-78
2022/08/22 06:09:15;;;;;;;16.70;9.48;;;;;;;;;;4945842;28;20126;-78
2022/08/22 06:11:59;;;;;;;16.38;9.68;;;;;;;16.78;97.98;68641.69;4936474;29;20044;-78
2022/08/22 06:14:27;;;;;;;14.32;8.88;;;;;;;16.81;98.46;68637.06;4933243;29;20078;-78
2022/08/22 06:17:05;;;;;;;14.02;8.38;;;;;;;16.84;97.83;68645.84;4940590;28;20154;-78
2022/08/22 06:19:35;;;;;;;13.88;9.40;;;;;;;;;;4966821;28;20043;-78
2022/08/22 06:22:02;;;;;;;15.88;10.10;;;;;;;16.87;98.57;68651.97;4938396;28;20094;-78
2022/08/22 06:24:30;;;;;;;14.35;8.75;;;;;;;;;;4934321;29;20040;-78
2022/08/22 06:27:03;;;;;;;14.25;8.75;;;;;;;;;;4936694;28;20043;-77
2022/08/22 06:29:35;;;;;;;15.02;9.35;;;;;;;17.05;97.32;68663.28;4946776;28;20047;-78
2022/08/22 06:32:08;;;;;;;15.70;9.20;;;;;;;17.00;98.07;68657.56;4945600;28;20035;-78
2022/08/22 06:34:36;;;;;;;16.00;8.70;;;;;;;17.10;97.45;68669.00;4949741;28;20047;-78
2022/08/22 06:37:04;;;;;;;14.38;8.02;;;;;;;;;;4946726;28;20047;-78
2022/08/22 06:39:31;;;;;;;12.85;8.43;;;;;;;;;;4952217;28;20125;-78
2022/08/22 06:42:00;;;;;;;13.98;9.07;;;;;;;;;;4923628;28;20147;-78
2022/08/22 06:44:31;;;;;;;16.85;8.82;;;;;;;17.17;96.98;68685.03;4936880;28;20511;-78
2022/08/22 06:46:59;;;;;;;15.00;8.40;;;;;;;17.21;96.58;68681.53;4951285;28;20071;-78
2022/08/22 06:49:26;;;;;;;14.85;8.48;;;;;;;17.24;96.45;68684.97;4948943;28;20514;-78
2022/08/22 06:51:58;;;;;;;15.25;8.07;;;;;;;17.27;96.20;68693.19;4948468;28;20039;-78
2022/08/22 06:54:27;;;;;;;12.60;7.80;;;;;;;17.23;96.95;68694.56;4950514;28;20043;-78
2022/08/22 06:56:54;;;;;;;14.82;8.65;;;;;;;17.26;96.88;68687.25;4952355;28;20054;-77
2022/08/22 06:59:28;;;;;;;12.52;8.23;;;;;;;17.29;96.24;68690.66;4931193;29;20043;-78
2022/08/22 07:02:19;;;;;;;15.27;8.45;;;;;;;17.32;96.12;68699.47;4947560;28;20126;-78
2022/08/22 07:04:48;;;;;;;14.63;8.63;;;;;;;17.32;96.76;68693.50;4931724;29;20175;-78
2022/08/22 07:07:16;;;;;;;13.00;9.07;;;;;;;;;;4932427;29;20051;-78
2022/08/22 07:09:41;;;;;;;14.03;8.00;;;;;;;17.46;95.91;68709.47;4933920;29;20039;-78
2022/08/22 07:12:20;;;;;;;16.25;8.57;;;;;;;17.53;95.90;68716.91;4940226;28;20283;-78
2022/08/22 07:14:51;;;;;;;14.02;8.20;;;;;;;17.55;95.19;68725.13;4942741;29;20452;-78
2022/08/22 07:17:28;;;;;;;12.35;7.75;;;;;;;;;;4941436;29;20490;-78
2022/08/22 07:20:17;;;;;;;11.63;7.55;;;;;;;;;;4948065;29;20047;-78
2022/08/22 07:22:59;;;;;;;15.68;7.75;;;;;;;17.74;95.41;68740.28;4897401;29;20056;-78
2022/08/22 07:25:26;;;;;;;15.35;7.82;;;;;;;17.75;94.31;68746.81;4949237;29;20075;-78
2022/08/22 07:27:54;;;;;;;13.90;7.80;;;;;;;17.80;93.47;68747.72;4941878;29;20491;-78
2022/08/22 07:30:22;;;;;;;14.48;8.35;;;;;;;17.85;93.29;68750.19;4934583;29;20491;-77
2022/08/22 07:32:57;;;;;;;13.98;7.28;;;;;;;17.95;92.79;68763.69;4943242;29;20047;-78
2022/08/22 07:35:27;;;;;;;14.98;7.97;;;;;;;18.03;92.41;68778.22;4926184;29;20432;-78
2022/08/22 07:37:59;;;;;;;11.93;7.22;;;;;;;;;;4927499;29;20043;-78
2022/08/22 07:40:59;;;;;;;14.50;7.38;;;;;;;18.23;91.58;68795.66;4941083;28;20071;-78
2022/08/22 07:43:30;;;;;;;16.55;7.70;;;;;;;;;;4931774;29;20519;-78
2022/08/22 07:46:07;;;;;;;16.02;7.80;;;;;;;;;;4930743;29;20082;-78
2022/08/22 07:48:47;;;;;;;13.15;7.50;;;;;;;18.50;90.87;68825.38;4900758;29;20097;-78
2022/08/22 07:51:16;;;;;;;12.80;7.15;;;;;;;18.49;90.38;68824.78;4949617;28;20039;-78
2022/08/22 07:53:46;;;;;;;12.18;7.85;;;;;;;18.44;89.96;68818.50;4944633;28;20051;-78
2022/08/22 07:56:14;;;;;;;15.77;7.72;;;;;;;;;;4949136;28;20495;-78
2022/08/22 07:58:41;;;;;;;14.88;6.97;;;;;;;;;;4948344;28;20053;-78
2022/08/22 08:01:15;;;;;;;15.30;7.75;;;;;;;18.52;89.13;68827.63;4925537;28;20740;-79
2022/08/22 08:03:42;;;;;;;13.10;7.15;;;;;;;;;;4940839;28;20039;-78
2022/08/22 08:06:08;;;;;;;13.50;7.43;;;;;;;18.60;88.34;68836.19;4939509;28;20130;-78
2022/08/22 08:08:40;;;;;;;16.45;7.70;;;;;;;;;;4950177;28;20098;-79
2022/08/22 08:11:09;;;;;;;13.55;7.20;;;;;;;18.61;87.50;68834.66;4936376;28;20043;-78
2022/08/22 08:13:39;;;;;;;12.95;7.18;;;;;;;;;;4940299;28;20032;-78
2022/08/22 08:16:07;;;;;;;14.00;7.35;;;;;;;;;;4931243;28;20111;-78
2022/08/22 08:18:37;;;;;;;13.38;6.03;;;;;;;18.93;86.09;68878.72;4951148;28;20137;-78
2022/08/22 08:21:05;;;;;;;10.77;6.70;;;;;;;;;;4942478;28;20071;-78
2022/08/22 08:23:36;;;;;;;13.98;7.63;;;;;;;;;;4951807;28;20065;-78
2022/08/22 08:26:04;;;;;;;12.45;7.22;;;;;;;;;;4939724;28;20051;-78
2022/08/22 08:28:33;;;;;;;11.60;6.83;;;;;;;19.05;85.83;68887.06;4942605;28;20572;-79
2022/08/22 08:31:35;;;;;;;12.75;6.32;;;;;;;19.24;85.00;68915.72;4939679;28;20404;-79
2022/08/22 08:34:04;;;;;;;11.90;6.20;;;;;;;;;;4934439;28;20378;-78
2022/08/22 08:36:36;;;;;;;13.63;6.53;;;;;;;;;;4937601;29;20272;-78
2022/08/22 08:39:16;;;;;;;13.30;6.25;;;;;;;19.32;84.88;68922.16;4950445;28;20047;-78
2022/08/22 08:41:41;;;;;;;12.52;7.20;;;;;;;;;;4942714;28;20039;-79
2022/08/22 08:44:36;;;;;;;10.40;5.83;;;;;;;19.40;84.15;68925.91;4929862;29;20446;-78
2022/08/22 08:47:10;;;;;;;12.20;6.18;;;;;;;19.48;84.53;68935.03;4929853;29;20303;-79
2022/08/22 08:49:35;;;;;;;11.45;6.85;;;;;;;;;;4929436;29;20510;-78
2022/08/22 08:52:09;;;;;;;12.73;7.33;;;;;;;;;;4929226;29;20055;-78
2022/08/22 08:54:50;;;;;;;13.52;6.63;;;;;;;19.33;84.98;68917.88;4971370;28;20358;-78
2022/08/22 08:57:38;;;;;;;9.55;5.47;;;;;;;19.47;84.67;68939.28;4912821;29;20048;-78
2022/08/22 09:00:13;;;;;;;15.87;6.73;;;;;;;19.54;84.42;68947.28;4947666;28;20047;-78
2022/08/22 09:03:05;;;;;;;14.20;6.65;;;;;;;19.59;84.18;68953.00;4946187;29;20116;-78
2022/08/22 09:06:02;;;;;;;11.32;6.05;;;;;;;19.80;83.43;68976.47;4944249;28;20043;-78
2022/08/22 09:08:54;;;;;;;11.32;6.95;;;;;;;19.87;83.13;68978.47;4922175;28;20391;-78
2022/08/22 09:11:25;;;;;;;11.70;6.38;;;;;;;;;;4945482;28;20042;-78
2022/08/22 09:13:53;;;;;;;9.85;6.15;;;;;;;20.12;80.09;69006.50;4932074;28;20055;-78
2022/08/22 09:16:35;;;;;;;12.30;6.27;;;;;;;20.18;79.80;69013.34;4910007;29;20068;-78
2022/08/22 09:19:01;;;;;;;13.07;6.07;;;;;;;;;;4931254;28;20381;-78
2022/08/22 09:21:45;;;;;;;11.65;6.07;;;;;;;20.39;79.89;69036.78;4944285;28;20427;-77
2022/08/22 09:24:39;;;;;;;9.40;6.88;;;;;;;20.38;79.98;69041.06;4937132;28;20095;-77
2022/08/22 09:27:07;;;;;;;10.85;6.03;;;;;;;;;;4939950;28;20126;-77
2022/08/22 09:29:54;;;;;;;14.48;6.43;;;;;;;20.63;78.18;69063.09;4930584;29;20043;-78
2022/08/22 09:32:37;;;;;;;12.50;6.80;;;;;;;20.68;78.81;69068.81;4935637;28;20043;-77
2022/08/22 09:35:15;;;;;;;9.68;6.10;;;;;;;20.74;79.17;69075.69;4943869;28;20067;-77
2022/08/22 09:37:57;;;;;;;8.10;5.72;;;;;;;20.93;77.52;69097.41;4935351;28;20039;-77
2022/08/22 09:41:00;;;;;;;10.65;5.95;;;;;;;21.05;75.99;69110.00;4934788;28;20122;-77
2022/08/22 09:43:44;;;;;;;11.52;6.13;;;;;;;20.99;77.75;69103.16;4938208;28;20043;-77
2022/08/22 09:46:22;;;;;;;10.00;5.82;;;;;;;21.13;75.91;69119.72;4943216;28;20094;-77
2022/08/22 09:49:00;;;;;;;;;;;;;;;21.22;74.41;69128.88;4941294;28;20143;-78
2022/08/22 09:51:33;;;;;;;11.73;6.22;;;;;;;;;;4942716;28;19922;-77
2022/08/22 09:54:17;;;;;;;9.95;5.20;;;;;;;;;;4945328;28;20031;-77
2022/08/22 09:57:13;;;;;;;9.68;5.65;;;;;;;21.48;74.38;69155.94;4931432;29;20592;-77
2022/08/22 09:59:53;;;;;;;10.00;6.35;;;;;;;;;;4914846;29;20134;-77
2022/08/22 10:03:03;;;;;;;9.07;5.18;;;;;;;21.63;73.52;69173.09;4934304;29;20044;-77
2022/08/22 10:05:42;;;;;;;11.02;5.55;;;;;;;21.60;72.58;69169.09;4880244;29;20059;-77
2022/08/22 10:08:17;;;;;;;11.35;4.93;;;;;;;21.84;72.23;69199.28;4905495;29;20529;-78
2022/08/22 10:11:08;;;;;;;7.35;5.03;;;;;;;22.11;71.83;69229.03;4922345;29;20047;-77
2022/08/22 10:14:07;;;;;;;9.85;5.43;;;;;;;22.00;71.56;69216.44;4936972;29;20043;-78
2022/08/22 10:16:52;;;;;;;8.95;4.88;;;;;;;22.00;70.82;69217.03;4931010;29;20444;-78
2022/08/22 10:19:32;;;;;;;12.75;5.32;;;;;;;22.01;71.18;69214.88;4928020;29;20419;-77
2022/08/22 10:22:16;;;;;;;8.77;5.25;;;;;;;22.18;68.47;69233.78;4956863;23;20114;-89
2022/08/22 10:25:00;;;;;;;11.00;4.28;;;;;;;;;;4941964;29;20127;-88
2022/08/22 10:27:44;;;;;;;9.35;4.30;;;;;;;;;;4954583;28;20040;-89
2022/08/22 10:30:19;;;;;;;8.68;4.00;;;;;;;22.57;67.62;69280.59;4957917;28;20054;-89
2022/08/22 10:33:12;;;;;;;8.88;4.43;;;;;;;22.81;65.86;69306.94;4953113;28;20039;-89
2022/08/22 10:35:50;;;;;;;9.57;3.90;;;;;;;23.05;64.20;69331.75;4950036;28;20699;-89
2022/08/22 10:38:18;;;;;;;8.23;3.80;;;;;;;;;;4957668;28;20039;-90
2022/08/22 10:40:47;;;;;;;8.70;3.90;;;;;;;23.38;62.24;69371.13;4962838;29;20097;-88
2022/08/22 10:43:12;;;;;;;;;;;;;;;;;;4960111;28;20506;-88
2022/08/22 10:45:42;;;;;;;6.20;3.50;;;;;;;23.59;61.62;69392.47;4947758;28;19982;-88
2022/08/22 10:48:08;;;;;;;7.28;3.22;;;;;;;23.82;60.54;69420.41;4956935;28;20039;-88
2022/08/22 10:50:41;;;;;;;6.97;3.22;;;;;;;23.85;59.60;69423.84;4962952;28;20110;-90
2022/08/22 10:53:29;;;;;;;9.13;3.53;;;;;;;23.86;61.54;69425.56;4947414;28;20039;-89
2022/08/22 10:56:17;;;;;;;6.82;3.38;;;;;;;24.09;60.19;69448.66;4951093;29;20059;-88
2022/08/22 10:58:54;;;;;;;7.72;3.17;;;;;;;23.94;59.29;69433.59;4958724;28;20457;-89
2022/08/22 11:01:21;;;;;;;8.95;2.80;;;;;;;;;;4962338;29;20042;-89
2022/08/22 11:04:19;;;;;;;8.70;3.10;;;;;;;;;;4956306;28;20068;-89
2022/08/22 11:06:50;;;;;;;7.60;3.70;;;;;;;23.61;59.08;69394.75;4918744;28;20514;-89
2022/08/22 11:09:23;;;;;;;9.30;3.15;;;;;;;23.56;58.48;69391.75;4957781;28;20035;-89
2022/08/22 11:11:55;;;;;;;7.70;2.50;;;;;;;23.59;57.75;69389.75;4949023;28;20047;-88
2022/08/22 11:14:41;;;;;;;9.32;3.20;;;;;;;23.43;57.68;69371.41;4939921;28;20246;-87
2022/08/22 11:17:30;;;;;;;8.07;3.10;;;;;;;23.44;56.64;69372.56;4952211;29;20501;-89
2022/08/22 11:20:16;;;;;;;7.40;3.13;;;;;;;23.36;58.06;69363.97;4949881;29;20054;-87
2022/08/22 11:23:05;;;;;;;8.27;3.13;;;;;;;23.56;58.01;69391.75;4963309;28;20040;-87
2022/08/22 11:25:30;;;;;;;;;;;;;;;23.75;57.78;69412.41;4946007;29;20130;-87
2022/08/22 11:28:18;;;;;;;7.20;2.78;;;;;;;23.65;58.64;69402.06;4932008;29;20005;-87
2022/08/22 11:30:43;;;;;;;7.97;2.88;;;;;;;24.04;57.33;69440.19;4946748;29;20047;-87
2022/08/22 11:33:22;;;;;;;6.78;2.50;;;;;;;24.53;55.93;69497.97;4929370;29;20392;-86
2022/08/22 11:36:23;;;;;;;7.88;2.70;;;;;;;24.47;53.39;69490.53;4945243;29;20058;-86
2022/08/22 11:38:58;;;;;;;9.48;3.08;;;;;;;24.47;54.38;69490.53;4912774;29;20524;-85
2022/08/22 11:41:38;;;;;;;5.85;2.55;;;;;;;24.69;54.41;69517.91;4937317;29;20044;-85
2022/08/22 11:44:33;;;;;;;5.75;2.47;;;;;;;24.77;54.16;69527.06;4947580;29;20055;-86
2022/08/22 11:47:01;;;;;;;5.88;3.03;;;;;;;24.88;54.23;69536.41;4938593;28;20039;-88
2022/08/22 11:49:40;;;;;;;6.13;2.30;;;;;;;24.92;53.62;69541.56;4951096;28;20081;-87
2022/08/22 11:52:28;;;;;;;6.60;2.40;;;;;;;24.93;53.85;69539.41;4943584;28;20095;-87
2022/08/22 11:54:58;;;;;;;9.30;2.83;;;;;;;24.76;53.63;69523.22;4950648;28;20055;-87
2022/08/22 11:57:41;;;;;;;6.55;2.70;;;;;;;24.83;52.44;69533.38;4950664;28;20083;-88
2022/08/22 12:00:14;;;;;;;7.40;2.53;;;;;;;24.87;53.03;69535.81;4963964;28;20046;-87
2022/08/22 12:03:07;;;;;;;9.65;2.95;;;;;;;25.06;52.25;69553.75;4946471;28;20426;-88
2022/08/22 12:05:41;;;;;;;5.47;2.83;;;;;;;25.08;52.34;69556.59;4964866;28;20057;-87
2022/08/22 12:08:28;;;;;;;7.65;2.70;;;;;;;25.18;52.10;69570.84;4947368;28;20352;-88
2022/08/22 12:11:07;;;;;;;5.85;3.00;;;;;;;25.17;50.45;69566.94;4947487;28;20050;-88
2022/08/22 12:14:01;;;;;;;8.35;3.00;;;;;;;25.11;51.30;69559.47;4942448;28;20597;-87
2022/08/22 12:16:33;;;;;;;9.40;2.40;;;;;;;25.19;51.91;69571.41;4946411;28;20130;-87
2022/08/22 12:19:16;;;;;;;7.75;2.85;;;;;;;25.74;50.35;69633.38;4951819;28;20035;-88
2022/08/22 12:22:09;;;;;;;7.40;3.00;;;;;;;25.75;51.28;69631.81;4953443;28;20052;-87
2022/08/22 12:25:15;;;;;;;6.82;2.55;;;;;;;26.02;49.30;69667.69;4962640;28;20052;-88
2022/08/22 12:27:53;;;;;;;7.55;2.53;;;;;;;25.52;51.47;69608.13;4954389;28;20047;-88
2022/08/22 12:30:31;;;;;;;8.43;2.90;;;;;;;25.83;51.73;69640.97;4960120;28;20067;-88
2022/08/22 12:33:17;;;;;;;7.90;3.38;;;;;;;26.18;51.92;69684.91;4956830;28;20489;-89
2022/08/22 12:36:18;;;;;;;8.73;3.30;;;;;;;26.27;51.10;69692.53;4966037;28;20106;-89
2022/08/22 12:38:49;;;;;;;6.13;3.50;;;;;;;25.90;49.52;69653.91;4943571;28;20409;-89
2022/08/22 12:41:31;;;;;;;12.38;3.67;;;;;;;25.87;50.83;69645.59;4948652;28;20035;-89
2022/08/22 12:44:18;;;;;;;6.97;2.78;;;;;;;26.01;51.13;69661.09;4952161;28;20452;-87
2022/08/22 12:47:21;;;;;;;8.38;3.03;;;;;;;26.53;51.20;69721.81;4935364;29;20047;-89
2022/08/22 12:50:15;;;;;;;9.45;3.10;;;;;;;26.58;48.87;69727.53;4936109;29;20054;-89
2022/08/22 12:53:00;;;;;;;6.90;3.45;;;;;;;26.53;49.75;69719.09;4944083;29;20044;-89
2022/08/22 12:55:28;;;;;;;6.75;3.05;;;;;;;26.29;49.54;69698.09;4955519;28;20508;-90
2022/08/22 12:58:44;;;;;;;6.22;2.88;;;;;;;26.21;49.58;69685.63;4955703;28;20083;-88
2022/08/22 13:01:11;;;;;;;7.82;3.17;;;;;;;26.21;50.71;69682.88;4921388;28;20043;-88
2022/08/22 13:03:47;;;;;;;7.93;3.33;;;;;;;26.36;49.19;69705.00;4957396;28;20057;-89
2022/08/22 13:07:10;;;;;;;7.72;3.20;;;;;;;26.91;48.15;69762.16;4955064;28;20058;-88
2022/08/22 13:09:39;;;;;;;8.75;3.50;;;;;;;26.37;48.37;69706.72;4881818;29;20071;-88